Time;durP1;ratioP1;P1;durP2;ratioP2;P2;SDS_P1;SDS_P2;PMS_P1;PMS_P2;Temp;Humidity;BMP_temperature;BMP_pressure;BME280_temperature;BME280_humidity;BME280_pressure;Samples;Min_cycle;Max_cycle;Signal;HPM_P1;HPM_P2
2022/05/18 00:02:42;;;;;;;24.85;12.90;;;;;;;;;;5049537;28;20052;-71
2022/05/18 00:05:46;;;;;;;27.00;12.68;;;;;;;;;;5049658;28;20491;-71
2022/05/18 00:08:50;;;;;;;25.92;13.60;;;;;;;;;;5050393;28;20420;-71
2022/05/18 00:11:55;;;;;;;20.83;13.13;;;;;;;;;;5050358;28;20048;-71
2022/05/18 00:14:59;;;;;;;24.23;12.27;;;;;;;;;;5053386;28;20044;-71
2022/05/18 00:18:04;;;;;;;21.48;12.77;;;;;;;;;;5053730;28;20041;-71
2022/05/18 00:21:08;;;;;;;31.60;13.30;;;;;;;;;;5052708;28;20409;-71
2022/05/18 00:24:13;;;;;;;28.23;12.60;;;;;;;;;;5054032;28;20491;-71
2022/05/18 00:27:17;;;;;;;21.40;13.13;;;;;;;;;;5054099;28;20048;-71
2022/05/18 00:30:22;;;;;;;30.00;12.82;;;;;;;;;;5052437;28;20427;-71
2022/05/18 00:33:28;;;;;;;22.33;12.85;;;;;;;;;;5053262;28;20067;-71
2022/05/18 00:36:32;;;;;;;24.98;13.60;;;;;;;;;;5040972;28;20047;-71
2022/05/18 00:39:36;;;;;;;27.20;13.82;;;;;;;;;;5052741;28;20227;-71
2022/05/18 00:42:41;;;;;;;24.23;13.75;;;;;;;;;;5053065;28;20052;-71
2022/05/18 00:45:46;;;;;;;27.25;13.18;;;;;;;;;;5041206;28;20040;-71
2022/05/18 00:48:50;;;;;;;24.00;13.00;;;;;;;;;;5053202;28;20044;-71
2022/05/18 00:51:55;;;;;;;30.17;13.02;;;;;;;;;;5053176;28;20040;-71
2022/05/18 00:55:01;;;;;;;21.08;14.15;;;;;;;;;;5051841;28;20045;-71
2022/05/18 00:58:09;;;;;;;26.98;13.05;;;;;;;;;;5052906;28;20051;-71
2022/05/18 01:01:13;;;;;;;20.52;12.13;;;;;;;;;;5052969;28;20044;-71
2022/05/18 01:04:17;;;;;;;24.90;12.98;;;;;;;;;;5052894;28;20052;-71
2022/05/18 01:07:25;;;;;;;32.95;13.88;;;;;;;;;;5051996;28;20043;-71
2022/05/18 01:10:29;;;;;;;24.65;12.98;;;;;;;;;;5051743;28;20044;-71
2022/05/18 01:13:34;;;;;;;28.52;14.23;;;;;;;;;;5051989;28;20389;-71
2022/05/18 01:16:38;;;;;;;29.10;13.93;;;;;;;;;;5052762;28;20051;-71
2022/05/18 01:19:48;;;;;;;36.63;15.27;;;;;;;;;;5052316;28;20076;-71
2022/05/18 01:23:13;;;;;;;25.37;13.80;;;;;;;;;;5052181;28;20524;-70
2022/05/18 01:26:17;;;;;;;23.77;15.60;;;;;;;;;;5051271;28;20055;-71
2022/05/18 01:29:22;;;;;;;23.63;14.65;;;;;;;;;;5052237;28;20047;-71
2022/05/18 01:32:38;;;;;;;26.63;14.23;;;;;;;;;;5040054;28;20048;-71
2022/05/18 01:35:43;;;;;;;25.77;13.73;;;;;;;;;;5052406;28;20044;-71
2022/05/18 01:38:47;;;;;;;32.08;15.63;;;;;;;;;;5051758;28;20048;-71
2022/05/18 01:42:07;;;;;;;25.55;15.70;;;;;;;;;;5051990;28;20048;-71
2022/05/18 01:45:13;;;;;;;24.95;14.65;;;;;;;;;;5050934;28;20064;-71
2022/05/18 01:48:18;;;;;;;28.35;15.27;;;;;;;;;;5052175;28;20496;-71
2022/05/18 01:51:49;;;;;;;29.50;15.10;;;;;;;;;;5051784;28;20048;-71
2022/05/18 01:54:53;;;;;;;29.35;14.73;;;;;;;;;;5051902;28;20040;-71
2022/05/18 01:57:58;;;;;;;22.73;14.57;;;;;;;;;;5051963;28;20040;-71
2022/05/18 02:01:03;;;;;;;23.00;13.52;;;;;;;;;;5051432;28;20048;-71
2022/05/18 02:04:08;;;;;;;28.30;14.20;;;;;;;;;;5051466;28;20052;-71
2022/05/18 02:07:13;;;;;;;23.00;12.63;;;;;;;;;;5028029;28;20052;-70
2022/05/18 02:10:18;;;;;;;27.50;13.90;;;;;;;;;;5051397;28;20044;-71
2022/05/18 02:13:23;;;;;;;24.73;13.77;;;;;;;;;;5051713;28;20044;-71
2022/05/18 02:16:28;;;;;;;21.10;13.63;;;;;;;;;;5051621;28;20040;-70
2022/05/18 02:19:32;;;;;;;22.25;13.48;;;;;;;;;;5051284;28;20503;-71
2022/05/18 02:22:36;;;;;;;24.88;13.20;;;;;;;;;;5051074;28;20055;-71
2022/05/18 02:25:41;;;;;;;27.23;13.57;;;;;;;;;;5050547;28;20049;-71
2022/05/18 02:28:46;;;;;;;23.90;13.02;;;;;;;;;;5050254;28;20047;-71
2022/05/18 02:31:50;;;;;;;28.92;13.68;;;;;;;;;;5051436;28;20044;-71
2022/05/18 02:34:54;;;;;;;26.42;13.95;;;;;;;;;;5051458;28;20055;-71
2022/05/18 02:37:59;;;;;;;23.60;13.60;;;;;;;;;;5050858;28;20048;-71
2022/05/18 02:41:03;;;;;;;23.95;13.20;;;;;;;;;;5027347;28;20051;-71
2022/05/18 02:44:07;;;;;;;24.15;13.80;;;;;;;;;;5051084;28;20047;-70
2022/05/18 02:47:12;;;;;;;23.20;12.93;;;;;;;;;;5051191;28;20044;-71
2022/05/18 02:50:16;;;;;;;28.02;13.63;;;;;;;;;;5050826;28;20396;-71
2022/05/18 02:53:21;;;;;;;28.25;13.88;;;;;;;;;;5050988;28;20048;-71
2022/05/18 02:56:27;;;;;;;24.98;12.90;;;;;;;;;;5050172;28;20048;-70
2022/05/18 02:59:32;;;;;;;25.60;13.45;;;;;;;;;;5050856;28;20056;-71
2022/05/18 03:02:36;;;;;;;26.13;13.43;;;;;;;;;;5051059;28;20051;-71
2022/05/18 03:05:40;;;;;;;33.47;14.00;;;;;;;;;;5050626;28;20384;-71
2022/05/18 03:08:45;;;;;;;24.52;13.18;;;;;;;;;;5050757;28;20052;-71
2022/05/18 03:11:50;;;;;;;22.83;12.60;;;;;;;;;;5049896;28;20044;-71
2022/05/18 03:14:54;;;;;;;28.13;12.80;;;;;;;;;;5050161;28;20424;-71
2022/05/18 03:17:59;;;;;;;18.88;12.13;;;;;;;;;;5049666;28;20063;-70
2022/05/18 03:24:26;;;;;;;24.90;14.00;;;;;;;;;;5050223;28;20049;-71
2022/05/18 03:27:31;;;;;;;32.03;15.35;;;;;;;;;;5051069;28;20044;-71
2022/05/18 03:30:35;;;;;;;25.00;14.30;;;;;;;;;;5049913;28;20385;-71
2022/05/18 03:33:40;;;;;;;24.77;13.20;;;;;;;;;;5050782;28;20048;-71
2022/05/18 03:36:44;;;;;;;25.75;13.32;;;;;;;;;;5050969;28;20047;-71
2022/05/18 03:39:49;;;;;;;26.88;13.38;;;;;;;;;;5050412;28;20064;-71
2022/05/18 03:42:53;;;;;;;20.50;13.68;;;;;;;;;;5037906;28;20048;-71
2022/05/18 03:45:59;;;;;;;24.15;13.35;;;;;;;;;;5050230;28;20044;-71
2022/05/18 03:49:04;;;;;;;19.60;12.57;;;;;;;;;;5052697;28;20048;-71
2022/05/18 03:52:08;;;;;;;24.92;14.13;;;;;;;;;;5054429;28;20052;-71
2022/05/18 03:55:13;;;;;;;21.23;13.95;;;;;;;;;;5054103;28;20060;-71
2022/05/18 03:58:18;;;;;;;27.38;13.70;;;;;;;;;;5054058;28;20051;-70
2022/05/18 04:01:22;;;;;;;22.10;12.88;;;;;;;;;;5053979;28;20044;-70
2022/05/18 04:04:26;;;;;;;27.85;14.07;;;;;;;;;;5054037;28;20068;-70
2022/05/18 04:07:31;;;;;;;27.80;13.70;;;;;;;;;;5052924;28;20640;-70
2022/05/18 04:10:38;;;;;;;32.67;15.50;;;;;;;;;;5041443;28;20048;-72
2022/05/18 04:13:44;;;;;;;28.75;14.48;;;;;;;;;;5053803;28;20048;-70
2022/05/18 04:16:49;;;;;;;31.20;14.50;;;;;;;;;;5053900;28;20044;-70
2022/05/18 04:19:54;;;;;;;44.03;13.35;;;;;;;;;;5053414;28;20591;-72
2022/05/18 04:22:59;;;;;;;49.92;15.43;;;;;;;;;;5052358;28;20063;-72
2022/05/18 04:26:04;;;;;;;41.05;15.18;;;;;;;;;;5053521;28;20510;-70
2022/05/18 04:29:08;;;;;;;27.80;14.98;;;;;;;;;;5053326;28;20052;-70
2022/05/18 04:32:13;;;;;;;33.20;14.95;;;;;;;;;;5052865;28;20043;-70
2022/05/18 04:35:18;;;;;;;45.15;15.38;;;;;;;;;;5053676;28;20044;-71
2022/05/18 04:38:23;;;;;;;32.88;17.20;;;;;;;;;;5053288;28;20051;-70
2022/05/18 04:41:27;;;;;;;38.70;16.95;;;;;;;;;;5052377;28;20499;-70
2022/05/18 04:44:32;;;;;;;36.05;15.63;;;;;;;;;;5053252;28;20056;-70
2022/05/18 04:47:37;;;;;;;38.13;16.30;;;;;;;;;;5053030;28;20040;-70
2022/05/18 04:50:42;;;;;;;22.75;12.93;;;;;;;;;;5052189;28;20481;-70
2022/05/18 04:53:46;;;;;;;23.52;12.90;;;;;;;;;;5052931;28;20044;-70
2022/05/18 04:56:51;;;;;;;31.58;12.18;;;;;;;;;;5053162;28;20044;-70
2022/05/18 04:59:56;;;;;;;32.35;12.50;;;;;;;;;;5040166;28;20044;-70
2022/05/18 05:03:01;;;;;;;25.85;12.15;;;;;;;;;;5052727;28;20050;-71
2022/05/18 05:06:06;;;;;;;24.67;12.80;;;;;;;;;;5052853;28;20040;-72
2022/05/18 05:09:11;;;;;;;25.27;12.27;;;;;;;;;;5051952;28;20056;-72
2022/05/18 05:12:16;;;;;;;27.60;13.13;;;;;;;;;;5052792;28;20048;-70
2022/05/18 05:15:20;;;;;;;42.47;13.57;;;;;;;;;;5052520;28;20048;-71
2022/05/18 05:18:24;;;;;;;31.00;13.55;;;;;;;;;;5052676;28;20056;-73
2022/05/18 05:21:28;;;;;;;36.15;14.25;;;;;;;;;;5052502;28;20052;-71
2022/05/18 05:24:33;;;;;;;30.60;13.13;;;;;;;;;;5052392;28;20044;-73
2022/05/18 05:27:38;;;;;;;39.53;14.70;;;;;;;;;;5052201;28;20135;-73
2022/05/18 05:30:42;;;;;;;46.47;15.30;;;;;;;;;;5051388;28;20496;-73
2022/05/18 05:33:46;;;;;;;41.38;16.20;;;;;;;;;;5052480;28;20044;-73
2022/05/18 05:36:51;;;;;;;45.67;19.63;;;;;;;;;;5052400;28;20063;-72
2022/05/18 05:39:55;;;;;;;40.72;19.08;;;;;;;;;;5051222;28;20048;-73
2022/05/18 05:42:59;;;;;;;42.72;22.00;;;;;;;;;;5052115;28;20048;-73
2022/05/18 05:46:05;;;;;;;35.80;21.27;;;;;;;;;;5051845;28;20044;-75
2022/05/18 05:49:11;;;;;;;31.85;20.98;;;;;;;;;;5051627;28;20060;-76
2022/05/18 05:52:15;;;;;;;37.90;19.27;;;;;;;;;;5051734;28;20047;-75
2022/05/18 05:55:20;;;;;;;40.67;20.40;;;;;;;;;;5039865;28;20500;-75
2022/05/18 05:58:26;;;;;;;38.10;22.08;;;;;;;;;;5052209;28;20048;-76
2022/05/18 06:01:30;;;;;;;43.15;22.40;;;;;;;;;;5051449;28;20048;-79
2022/05/18 06:04:36;;;;;;;52.92;24.23;;;;;;;;;;5051602;28;20068;-76
2022/05/18 06:07:41;;;;;;;42.30;25.10;;;;;;;;;;5051513;28;20040;-75
2022/05/18 06:10:46;;;;;;;45.53;26.05;;;;;;;;;;5027432;28;20048;-76
2022/05/18 06:13:51;;;;;;;47.72;23.58;;;;;;;;;;5051488;28;20044;-76
2022/05/18 06:16:56;;;;;;;55.47;25.77;;;;;;;;;;5050940;28;20107;-78
2022/05/18 06:20:00;;;;;;;33.38;22.20;;;;;;;;;;5048512;28;20416;-75
2022/05/18 06:23:07;;;;;;;36.03;19.75;;;;;;;;;;5049622;28;20051;-75
2022/05/18 06:26:12;;;;;;;37.80;21.63;;;;;;;;;;5049255;28;20048;-78
2022/05/18 06:29:16;;;;;;;33.13;18.80;;;;;;;;;;5050421;28;20495;-81
2022/05/18 06:32:20;;;;;;;28.17;18.23;;;;;;;;;;5050396;28;20044;-80
2022/05/18 06:35:25;;;;;;;32.60;17.10;;;;;;;;;;5050854;28;20396;-80
2022/05/18 06:38:30;;;;;;;44.83;19.92;;;;;;;;;;5038730;28;20056;-77
2022/05/18 06:41:35;;;;;;;35.75;17.40;;;;;;;;;;5050787;28;20044;-77
2022/05/18 06:44:40;;;;;;;34.30;16.63;;;;;;;;;;5051060;28;20476;-78
2022/05/18 06:47:44;;;;;;;28.98;15.52;;;;;;;;;;5051027;28;20044;-76
2022/05/18 06:50:48;;;;;;;33.22;16.05;;;;;;;;;;5050640;28;20048;-74
2022/05/18 06:53:54;;;;;;;32.13;15.43;;;;;;;;;;5050420;28;20056;-74
2022/05/18 06:56:57;;;;;;;35.95;14.07;;;;;;;;;;5050519;28;20561;-75
2022/05/18 07:00:04;;;;;;;43.45;15.82;;;;;;;;;;5050417;28;20040;-77
2022/05/18 07:03:09;;;;;;;35.78;16.20;;;;;;;;;;5050694;28;20519;-76
2022/05/18 07:06:14;;;;;;;28.02;13.88;;;;;;;;;;5049938;28;20052;-79
2022/05/18 07:09:20;;;;;;;34.42;14.90;;;;;;;;;;5038301;28;20040;-76
2022/05/18 07:12:24;;;;;;;24.70;15.80;;;;;;;;;;5050584;28;20056;-76
2022/05/18 07:15:29;;;;;;;31.83;14.98;;;;;;;;;;5049458;28;20039;-73
2022/05/18 07:18:33;;;;;;;31.42;15.73;;;;;;;;;;5048243;28;20047;-72
2022/05/18 07:21:38;;;;;;;30.90;14.60;;;;;;;;;;5050455;28;20048;-74
2022/05/18 07:24:43;;;;;;;28.08;13.98;;;;;;;;;;5054257;28;20067;-75
2022/05/18 07:27:48;;;;;;;30.98;12.77;;;;;;;;;;5054477;28;20084;-72
2022/05/18 07:30:53;;;;;;;25.02;11.85;;;;;;;;;;5054488;28;20052;-73
2022/05/18 07:33:57;;;;;;;25.95;12.43;;;;;;;;;;5054427;28;20048;-75
2022/05/18 07:37:02;;;;;;;38.83;12.77;;;;;;;;;;5054032;28;20554;-74
2022/05/18 07:40:07;;;;;;;29.33;10.35;;;;;;;;;;5053162;28;20413;-74
2022/05/18 07:43:11;;;;;;;26.42;10.85;;;;;;;;;;5053895;28;20060;-75
2022/05/18 07:46:15;;;;;;;28.98;9.52;;;;;;;;;;5054328;28;20066;-80
2022/05/18 07:49:20;;;;;;;24.35;8.15;;;;;;;;;;5053182;28;20392;-76
2022/05/18 07:52:24;;;;;;;15.95;6.80;;;;;;;;;;5053365;28;20056;-79
2022/05/18 07:55:29;;;;;;;11.95;3.95;;;;;;;;;;5053426;28;20059;-77
2022/05/18 07:58:33;;;;;;;11.45;3.85;;;;;;;;;;5054484;28;20044;-75
2022/05/18 08:01:39;;;;;;;15.52;4.82;;;;;;;;;;5053656;28;20063;-76
2022/05/18 08:04:44;;;;;;;13.75;3.92;;;;;;;;;;5053361;28;20052;-76
2022/05/18 08:07:48;;;;;;;7.72;3.45;;;;;;;;;;5052730;28;20056;-75
2022/05/18 08:17:58;;;;;;;11.85;3.00;;;;;;;;;;5071388;28;20479;-77
2022/05/18 08:21:03;;;;;;;13.55;3.17;;;;;;;;;;5048085;28;20178;-74
2022/05/18 08:24:07;;;;;;;20.05;3.40;;;;;;;;;;5053125;28;20060;-73
2022/05/18 08:27:13;;;;;;;17.98;3.30;;;;;;;;;;5052998;28;20047;-74
2022/05/18 08:30:19;;;;;;;6.78;3.28;;;;;;;;;;5053308;28;20055;-76
2022/05/18 08:33:24;;;;;;;7.78;3.10;;;;;;;;;;5052124;28;20056;-74
2022/05/18 08:36:29;;;;;;;6.57;2.60;;;;;;;;;;5052344;28;20033;-78
2022/05/18 08:39:33;;;;;;;19.90;3.17;;;;;;;;;;5051472;28;20033;-74
2022/05/18 08:42:37;;;;;;;7.38;2.78;;;;;;;;;;5052130;28;20048;-73
2022/05/18 08:45:46;;;;;;;8.77;2.65;;;;;;;;;;5051768;28;20045;-75
2022/05/18 08:49:06;;;;;;;13.68;3.35;;;;;;;;;;5051439;28;20033;-77
2022/05/18 08:52:21;;;;;;;8.93;2.58;;;;;;;;;;5051594;28;20476;-74
2022/05/18 08:55:37;;;;;;;10.60;3.00;;;;;;;;;;5052194;28;20147;-79
2022/05/18 08:58:47;;;;;;;7.35;2.58;;;;;;;;;;5052599;28;20040;-74
2022/05/18 09:01:55;;;;;;;13.73;3.05;;;;;;;;;;5052906;28;20041;-76
2022/05/18 09:05:05;;;;;;;10.63;2.20;;;;;;;;;;5052757;28;20393;-77
2022/05/18 09:08:10;;;;;;;8.88;2.70;;;;;;;;;;5052966;28;20040;-78
2022/05/18 09:11:16;;;;;;;16.35;2.90;;;;;;;;;;5052800;28;20037;-75
2022/05/18 09:14:22;;;;;;;7.78;2.70;;;;;;;;;;5052507;28;20052;-74
2022/05/18 09:17:26;;;;;;;7.88;2.90;;;;;;;;;;5052257;28;20037;-77
2022/05/18 09:20:36;;;;;;;12.52;2.45;;;;;;;;;;5051511;28;20512;-76
2022/05/18 09:23:41;;;;;;;;;;;;;;;;;;5052572;28;20064;-76
2022/05/18 09:26:51;;;;;;;22.23;2.50;;;;;;;;;;5051506;28;20410;-74
2022/05/18 09:30:19;;;;;;;17.25;2.30;;;;;;;;;;5052347;28;20052;-77
2022/05/18 09:33:27;;;;;;;4.28;2.13;;;;;;;;;;5039654;28;20047;-80
2022/05/18 09:36:44;;;;;;;8.27;2.30;;;;;;;;;;5039648;28;20041;-75
2022/05/18 09:39:53;;;;;;;18.58;2.38;;;;;;;;;;5051692;28;20053;-73
2022/05/18 09:43:09;;;;;;;28.77;4.38;;;;;;;;;;5051249;28;20052;-73
2022/05/18 09:46:15;;;;;;;7.38;2.35;;;;;;;;;;5050363;28;20123;-76
2022/05/18 09:49:24;;;;;;;3.83;2.10;;;;;;;;;;5051818;28;20048;-75
2022/05/18 09:52:29;;;;;;;22.42;3.05;;;;;;;;;;5051215;28;20430;-75
2022/05/18 09:55:34;;;;;;;12.55;2.20;;;;;;;;;;5051766;28;20052;-73
2022/05/18 09:58:40;;;;;;;9.25;2.28;;;;;;;;;;5051443;28;20040;-74
2022/05/18 10:08:33;;;;;;;13.07;2.70;;;;;;;;;;5051499;28;20048;-74
2022/05/18 10:11:38;;;;;;;9.35;2.30;;;;;;;;;;5051489;28;20052;-76
2022/05/18 10:14:46;;;;;;;17.45;2.58;;;;;;;;;;5051138;28;20037;-75
2022/05/18 10:17:59;;;;;;;20.15;2.50;;;;;;;;;;5051009;28;20396;-77
2022/05/18 10:21:09;;;;;;;14.30;2.20;;;;;;;;;;5050353;28;20049;-77
2022/05/18 10:24:14;;;;;;;;;;;;;;;;;;5051084;28;20315;-80
2022/05/18 10:27:18;;;;;;;8.80;2.03;;;;;;;;;;5049699;28;19915;-76
2022/05/18 10:30:31;;;;;;;5.20;2.10;;;;;;;;;;5050346;28;20291;-77
2022/05/18 10:33:37;;;;;;;15.27;2.00;;;;;;;;;;5050833;28;20040;-77
2022/05/18 10:36:50;;;;;;;18.45;1.95;;;;;;;;;;5051429;28;20393;-75
2022/05/18 10:40:03;;;;;;;10.52;2.03;;;;;;;;;;5051207;28;20052;-74
2022/05/18 10:43:25;;;;;;;15.10;2.17;;;;;;;;;;5050930;28;20060;-75
2022/05/18 10:46:32;;;;;;;6.18;1.88;;;;;;;;;;5050137;28;20044;-74
2022/05/18 10:49:37;;;;;;;7.78;2.10;;;;;;;;;;5050455;28;20029;-74
2022/05/18 10:52:41;;;;;;;7.70;2.50;;;;;;;;;;5050581;28;20272;-75
2022/05/18 10:55:55;;;;;;;5.88;2.03;;;;;;;;;;5050802;28;20049;-79
2022/05/18 10:59:18;;;;;;;4.60;1.90;;;;;;;;;;5049728;28;20045;-81
2022/05/18 11:02:39;;;;;;;5.95;2.15;;;;;;;;;;5049905;28;20488;-79
2022/05/18 11:05:52;;;;;;;6.13;1.90;;;;;;;;;;5049504;28;20513;-78
2022/05/18 11:09:00;;;;;;;10.73;1.80;;;;;;;;;;5050593;28;20037;-78
2022/05/18 11:12:20;;;;;;;13.77;2.08;;;;;;;;;;5050285;28;20032;-76
2022/05/18 11:15:35;;;;;;;15.23;2.10;;;;;;;;;;5050755;28;20504;-78
2022/05/18 11:18:54;;;;;;;32.17;2.90;;;;;;;;;;5038393;28;20048;-77
2022/05/18 11:22:05;;;;;;;7.47;1.55;;;;;;;;;;5049550;28;20044;-74
2022/05/18 11:25:22;;;;;;;10.50;1.92;;;;;;;;;;5050560;28;20052;-77
2022/05/18 11:28:38;;;;;;;11.20;2.28;;;;;;;;;;5050226;28;20476;-75
2022/05/18 11:31:48;;;;;;;12.52;1.95;;;;;;;;;;5049157;28;20048;-75
2022/05/18 11:35:14;;;;;;;10.50;2.00;;;;;;;;;;5038328;28;20048;-79
2022/05/18 11:38:18;;;;;;;8.13;2.05;;;;;;;;;;5053859;28;20044;-76
2022/05/18 11:41:30;;;;;;;4.95;1.70;;;;;;;;;;5050978;28;20045;-76
2022/05/18 11:44:47;;;;;;;4.35;1.58;;;;;;;;;;5050355;28;20044;-76
2022/05/18 11:48:02;;;;;;;5.43;2.13;;;;;;;;;;5049923;28;20390;-79
2022/05/18 11:51:19;;;;;;;14.30;1.85;;;;;;;;;;5049871;28;20362;-75
2022/05/18 11:54:23;;;;;;;9.73;1.85;;;;;;;;;;5050468;28;20048;-79
2022/05/18 11:57:51;;;;;;;9.02;2.05;;;;;;;;;;5050444;28;20283;-77
2022/05/18 12:01:00;;;;;;;11.57;1.75;;;;;;;;;;5050445;28;20040;-80
2022/05/18 12:04:16;;;;;;;5.75;1.80;;;;;;;;;;5050215;28;20436;-80
2022/05/18 12:07:34;;;;;;;9.15;1.65;;;;;;;;;;5050572;28;20029;-79
2022/05/18 12:10:50;;;;;;;10.23;1.55;;;;;;;;;;5053377;28;20032;-80
2022/05/18 12:14:10;;;;;;;7.68;1.70;;;;;;;;;;5053823;28;20052;-77
2022/05/18 12:17:17;;;;;;;4.43;1.70;;;;;;;;;;5053892;28;20033;-75
2022/05/18 12:20:42;;;;;;;3.58;1.35;;;;;;;;;;5053315;28;20041;-78
2022/05/18 12:23:48;;;;;;;6.60;1.48;;;;;;;;;;5050818;28;20053;-78
2022/05/18 12:26:54;;;;;;;9.80;1.83;;;;;;;;;;5051944;28;20037;-73
2022/05/18 12:29:59;;;;;;;8.77;1.67;;;;;;;;;;5052001;28;20037;-75
2022/05/18 12:33:05;;;;;;;9.57;2.13;;;;;;;;;;5052866;28;20366;-80
2022/05/18 12:36:17;;;;;;;10.10;1.75;;;;;;;;;;5052773;28;20053;-76
2022/05/18 12:39:40;;;;;;;11.30;2.30;;;;;;;;;;5053040;28;20048;-78
2022/05/18 12:43:10;;;;;;;9.48;1.80;;;;;;;;;;5053515;28;20048;-80
2022/05/18 12:46:15;;;;;;;5.72;1.63;;;;;;;;;;5053274;28;20048;-74
2022/05/18 12:49:29;;;;;;;10.57;1.80;;;;;;;;;;5052977;28;20386;-77
2022/05/18 12:52:37;;;;;;;10.60;1.80;;;;;;;;;;5053301;28;20194;-79
2022/05/18 12:55:53;;;;;;;5.78;1.70;;;;;;;;;;5053371;28;20057;-76
2022/05/18 12:58:58;;;;;;;15.82;2.63;;;;;;;;;;5052919;28;20040;-76
2022/05/18 13:02:05;;;;;;;6.03;1.98;;;;;;;;;;5052525;28;20064;-79
2022/05/18 13:05:28;;;;;;;5.80;1.75;;;;;;;;;;5052786;28;20048;-74
2022/05/18 13:08:37;;;;;;;7.75;1.50;;;;;;;;;;5052891;28;20037;-76
2022/05/18 13:11:45;;;;;;;8.02;1.88;;;;;;;;;;5040818;28;20378;-77
2022/05/18 13:15:11;;;;;;;5.80;1.65;;;;;;;;;;5053017;28;20391;-74
2022/05/18 13:18:17;;;;;;;6.30;1.48;;;;;;;;;;5052751;28;20508;-77
2022/05/18 13:21:28;;;;;;;6.55;1.77;;;;;;;;;;5051652;28;20374;-80
2022/05/18 13:24:40;;;;;;;9.85;1.90;;;;;;;;;;5052547;28;20041;-76
2022/05/18 13:27:52;;;;;;;9.80;1.98;;;;;;;;;;5052836;28;20036;-79
2022/05/18 13:30:59;;;;;;;10.07;2.85;;;;;;;;;;5052033;28;20048;-78
2022/05/18 13:34:30;;;;;;;9.68;1.50;;;;;;;;;;5052510;28;20496;-78
2022/05/18 13:37:34;;;;;;;7.53;1.90;;;;;;;;;;5051982;28;20509;-75
2022/05/18 13:40:42;;;;;;;8.05;1.80;;;;;;;;;;5052647;28;20041;-77
2022/05/18 13:43:46;;;;;;;4.32;1.23;;;;;;;;;;5051264;28;20037;-74
2022/05/18 13:46:52;;;;;;;3.10;1.40;;;;;;;;;;5039608;28;20041;-74
2022/05/18 13:50:01;;;;;;;9.32;1.65;;;;;;;;;;5039848;28;20363;-76
2022/05/18 13:53:09;;;;;;;4.22;1.50;;;;;;;;;;5051828;28;20033;-74
2022/05/18 13:56:18;;;;;;;8.18;1.40;;;;;;;;;;5051922;28;20045;-79
2022/05/18 13:59:32;;;;;;;2.50;1.42;;;;;;;;;;5051305;28;20041;-83
2022/05/18 14:02:36;;;;;;;11.30;1.80;;;;;;;;;;5051877;28;20041;-83
2022/05/18 14:05:41;;;;;;;4.30;1.52;;;;;;;;;;5051632;28;20051;-72
2022/05/18 14:08:48;;;;;;;7.43;2.00;;;;;;;;;;5051918;28;20037;-82
2022/05/18 14:11:56;;;;;;;6.90;1.75;;;;;;;;;;5051651;28;20045;-73
2022/05/18 14:15:03;;;;;;;10.02;1.80;;;;;;;;;;5050843;28;20036;-81
2022/05/18 14:18:10;;;;;;;3.97;1.55;;;;;;;;;;5051618;28;20400;-77
2022/05/18 14:21:15;;;;;;;9.88;2.05;;;;;;;;;;5051365;28;20041;-81
2022/05/18 14:24:20;;;;;;;7.65;1.75;;;;;;;;;;5051496;28;20053;-74
2022/05/18 14:27:28;;;;;;;13.88;2.58;;;;;;;;;;5050633;28;20362;-81
2022/05/18 14:30:36;;;;;;;4.10;1.30;;;;;;;;;;5050412;28;20052;-77
2022/05/18 14:33:43;;;;;;;7.38;1.77;;;;;;;;;;5049869;28;20036;-74
2022/05/18 14:36:50;;;;;;;7.82;1.70;;;;;;;;;;5038904;28;20036;-80
2022/05/18 14:39:56;;;;;;;6.90;1.85;;;;;;;;;;5051105;28;20057;-74
2022/05/18 14:43:00;;;;;;;10.82;2.00;;;;;;;;;;5051100;28;20041;-77
2022/05/18 14:46:04;;;;;;;8.95;1.90;;;;;;;;;;5050891;28;20048;-77
2022/05/18 14:49:13;;;;;;;4.45;2.00;;;;;;;;;;5050358;28;20033;-80
2022/05/18 14:52:27;;;;;;;5.68;1.90;;;;;;;;;;5050154;28;20253;-75
2022/05/18 14:55:40;;;;;;;8.23;1.95;;;;;;;;;;5049117;28;20477;-79
2022/05/18 14:58:47;;;;;;;5.47;1.58;;;;;;;;;;5049990;28;20184;-75
2022/05/18 15:01:54;;;;;;;9.75;2.10;;;;;;;;;;5049315;28;20033;-73
2022/05/18 15:05:08;;;;;;;10.43;2.72;;;;;;;;;;5049742;28;20049;-77
2022/05/18 15:08:25;;;;;;;14.15;2.22;;;;;;;;;;5050624;28;20405;-74
2022/05/18 15:11:33;;;;;;;8.23;2.30;;;;;;;;;;5050942;28;20055;-78
2022/05/18 15:14:43;;;;;;;8.05;2.15;;;;;;;;;;5049886;28;20029;-74
2022/05/18 15:17:53;;;;;;;7.60;1.73;;;;;;;;;;5050620;28;20041;-75
2022/05/18 15:21:03;;;;;;;8.43;1.83;;;;;;;;;;5050508;28;20442;-81
2022/05/18 15:24:15;;;;;;;5.78;2.03;;;;;;;;;;5049888;28;20048;-84
2022/05/18 15:27:26;;;;;;;8.77;2.00;;;;;;;;;;5050945;28;20045;-80
2022/05/18 15:30:30;;;;;;;10.20;2.47;;;;;;;;;;5050733;28;20366;-81
2022/05/18 15:33:37;;;;;;;6.95;2.00;;;;;;;;;;5049895;28;20044;-82
2022/05/18 15:36:42;;;;;;;5.28;2.08;;;;;;;;;;5050504;28;20489;-74
2022/05/18 15:39:47;;;;;;;6.60;1.70;;;;;;;;;;5050265;28;20045;-81
2022/05/18 15:42:52;;;;;;;7.32;2.17;;;;;;;;;;5050712;28;20041;-82
2022/05/18 15:46:00;;;;;;;8.07;2.13;;;;;;;;;;5054368;28;20049;-76
2022/05/18 15:49:07;;;;;;;6.18;1.85;;;;;;;;;;5053421;28;20037;-74
2022/05/18 15:52:14;;;;;;;5.75;2.22;;;;;;;;;;5053533;28;20346;-78
2022/05/18 15:55:23;;;;;;;7.10;2.33;;;;;;;;;;5042077;28;20040;-76
2022/05/18 15:58:27;;;;;;;6.78;1.90;;;;;;;;;;5053785;28;20032;-75
2022/05/18 16:01:33;;;;;;;7.25;2.25;;;;;;;;;;5041518;28;20041;-74
2022/05/18 16:04:38;;;;;;;6.22;2.00;;;;;;;;;;5053825;28;20041;-76
2022/05/18 16:07:45;;;;;;;11.07;2.03;;;;;;;;;;5054302;28;20037;-79
2022/05/18 16:10:50;;;;;;;11.85;2.30;;;;;;;;;;5042082;28;20051;-78
2022/05/18 16:13:55;;;;;;;3.38;1.65;;;;;;;;;;5053808;28;20044;-84
2022/05/18 16:16:59;;;;;;;7.60;1.90;;;;;;;;;;5042123;28;20492;-79
2022/05/18 16:20:05;;;;;;;4.93;2.05;;;;;;;;;;5053870;28;20041;-75
2022/05/18 16:23:14;;;;;;;6.05;1.65;;;;;;;;;;5053578;28;20477;-75
2022/05/18 16:26:22;;;;;;;7.30;1.58;;;;;;;;;;5052746;28;20037;-74
2022/05/18 16:29:28;;;;;;;8.27;2.05;;;;;;;;;;5050921;28;20033;-75
2022/05/18 16:32:32;;;;;;;7.55;1.90;;;;;;;;;;5053029;28;20037;-76
2022/05/18 16:35:36;;;;;;;8.57;1.98;;;;;;;;;;5053010;28;20414;-76
2022/05/18 16:38:41;;;;;;;4.03;2.00;;;;;;;;;;5052886;28;20041;-74
2022/05/18 16:41:46;;;;;;;6.80;1.80;;;;;;;;;;5053375;28;20041;-75
2022/05/18 16:44:51;;;;;;;10.45;1.92;;;;;;;;;;5052942;28;20045;-76
2022/05/18 16:47:56;;;;;;;7.82;2.03;;;;;;;;;;5053036;28;20052;-75
2022/05/18 16:51:00;;;;;;;7.43;2.00;;;;;;;;;;5052308;28;20044;-77
2022/05/18 16:54:05;;;;;;;8.20;2.25;;;;;;;;;;5052971;28;20040;-74
2022/05/18 16:57:15;;;;;;;7.75;2.10;;;;;;;;;;5052998;28;20209;-75
2022/05/18 17:00:20;;;;;;;6.20;2.35;;;;;;;;;;5052859;28;20101;-74
2022/05/18 17:03:26;;;;;;;8.60;2.10;;;;;;;;;;5052484;28;20037;-75
2022/05/18 17:06:30;;;;;;;5.18;1.80;;;;;;;;;;5052168;28;20520;-74
2022/05/18 17:09:34;;;;;;;12.82;2.55;;;;;;;;;;5051888;28;20260;-74
2022/05/18 17:12:43;;;;;;;5.03;1.70;;;;;;;;;;5052667;28;20044;-75
2022/05/18 17:15:47;;;;;;;6.45;2.10;;;;;;;;;;5052216;28;20033;-74
2022/05/18 17:18:55;;;;;;;6.00;2.05;;;;;;;;;;5051858;28;20033;-76
2022/05/18 17:22:00;;;;;;;6.70;1.70;;;;;;;;;;5051592;28;20041;-73
2022/05/18 17:25:04;;;;;;;7.18;2.15;;;;;;;;;;5051405;28;20041;-77
2022/05/18 17:28:09;;;;;;;6.97;1.90;;;;;;;;;;5051636;28;20037;-76
2022/05/18 17:31:13;;;;;;;6.00;1.90;;;;;;;;;;5050962;28;20049;-75
2022/05/18 17:34:17;;;;;;;7.07;2.50;;;;;;;;;;5039815;28;20041;-78
2022/05/18 17:37:22;;;;;;;9.30;2.17;;;;;;;;;;5051943;28;20542;-77
2022/05/18 17:40:26;;;;;;;4.97;2.42;;;;;;;;;;5051361;28;20401;-75
2022/05/18 17:43:33;;;;;;;4.93;2.22;;;;;;;;;;5052174;28;20045;-74
2022/05/18 17:46:40;;;;;;;8.75;2.17;;;;;;;;;;5052061;28;20045;-75
2022/05/18 17:49:44;;;;;;;7.07;2.10;;;;;;;;;;5052045;28;20041;-75
2022/05/18 17:52:48;;;;;;;9.13;2.25;;;;;;;;;;5050837;28;20040;-76
2022/05/18 17:55:52;;;;;;;7.85;2.25;;;;;;;;;;5051810;28;20045;-76
2022/05/18 17:58:57;;;;;;;4.80;2.00;;;;;;;;;;5050348;28;20052;-74
2022/05/18 18:02:02;;;;;;;7.30;2.10;;;;;;;;;;5051116;28;20045;-74
2022/05/18 18:05:07;;;;;;;5.75;2.40;;;;;;;;;;5051502;28;20052;-74
2022/05/18 18:08:12;;;;;;;7.13;2.50;;;;;;;;;;5050568;28;20041;-74
2022/05/18 18:11:16;;;;;;;9.45;2.90;;;;;;;;;;5051332;28;20037;-76
2022/05/18 18:14:21;;;;;;;7.22;2.47;;;;;;;;;;5051373;28;20386;-76
2022/05/18 18:17:26;;;;;;;9.27;2.30;;;;;;;;;;5051404;28;20037;-77
2022/05/18 18:20:36;;;;;;;8.55;2.65;;;;;;;;;;5051512;28;20045;-76
2022/05/18 18:23:43;;;;;;;20.63;7.35;;;;;;;;;;5050426;28;20037;-75
2022/05/18 18:26:47;;;;;;;6.90;2.30;;;;;;;;;;5051193;28;20056;-74
2022/05/18 18:29:52;;;;;;;15.02;2.72;;;;;;;;;;5051227;28;20374;-74
2022/05/18 18:32:56;;;;;;;7.32;2.78;;;;;;;;;;5051395;28;20043;-75
2022/05/18 18:36:01;;;;;;;15.05;3.03;;;;;;;;;;5051038;28;20048;-72
2022/05/18 18:39:05;;;;;;;14.48;3.08;;;;;;;;;;5050086;28;20047;-72
2022/05/18 18:42:10;;;;;;;15.23;3.65;;;;;;;;;;5050145;28;20052;-73
2022/05/18 18:45:15;;;;;;;25.23;2.92;;;;;;;;;;5050809;28;20047;-72